Flight Briefing for CPX824

Departure Arrival
RAF Ascension Island (FHAW)
Click to view FAA NOTAMS
Grantley Adams International Airport (TBPB)
Click to view FAA NOTAMS
Departure Time Arrival Time
N/A N/A
Aircraft Distance
B757-200SF 2971nm
Departure METAR Arrival METAR
FHAW 190450Z 14009KT 9999 FEW024 BKN350 26/21 Q1012 BLU NOSIG TBPB 192200Z 07016KT 9999 SCT020 SCT038 26/19 Q1015 NOSIG
Suggested Route
EGUPA 0030W 0440N 0850N DOLRO UM791 BGI


View recent IFR Routes data
Notes
USTRANSCOM CONTRACT FLIGHT | PAYLOAD RESTRICTED | ETOPS

Charts and Procedures

Charts for FHAW
No chart available
Charts for TBPB
No chart available

Ventusky Weather




{"cat":null,"equip":null,"transponder":null,"pbn":"PBN\/","maxpax":null,"oew":"0.0","mzfw":"0.0","mtow":"0.0","mlw":"0.0","maxfuel":"0.0"} DEVELOPMENTAL TEST USE ONLY